createdAt,value
2022-08-25T00:02:06.867Z,19.00
2022-08-25T00:04:36.525Z,18.93
2022-08-25T00:07:05.974Z,18.92
2022-08-25T00:09:35.767Z,18.96
2022-08-25T00:12:03.952Z,18.92
2022-08-25T00:14:35.655Z,18.86
2022-08-25T00:17:07.285Z,18.85
2022-08-25T00:19:38.068Z,18.86
2022-08-25T00:22:06.819Z,18.87
2022-08-25T00:24:33.621Z,18.82
2022-08-25T00:27:03.930Z,18.79
2022-08-25T00:29:31.864Z,18.73
2022-08-25T00:31:59.956Z,18.63
2022-08-25T00:34:34.234Z,18.62
2022-08-25T00:37:03.138Z,18.64
2022-08-25T00:39:30.653Z,18.66
2022-08-25T00:41:58.177Z,18.66
2022-08-25T00:44:28.934Z,18.58
2022-08-25T00:47:00.807Z,18.57
2022-08-25T00:49:37.942Z,18.55
2022-08-25T00:52:33.157Z,18.51
2022-08-25T00:55:17.689Z,18.50
2022-08-25T00:57:50.280Z,18.50
2022-08-25T01:00:26.606Z,18.51
2022-08-25T01:02:53.990Z,18.53
2022-08-25T01:05:21.569Z,18.46
2022-08-25T01:07:49.948Z,18.51
2022-08-25T01:10:19.761Z,18.51
2022-08-25T01:12:47.072Z,18.49
2022-08-25T01:15:15.235Z,18.46
2022-08-25T01:17:53.620Z,18.38
2022-08-25T01:20:24.555Z,18.34
2022-08-25T01:22:57.733Z,18.33
2022-08-25T01:25:53.512Z,18.25
2022-08-25T01:28:21.558Z,18.25
2022-08-25T01:30:49.515Z,18.15
2022-08-25T01:33:19.539Z,18.08
2022-08-25T01:35:47.153Z,18.11
2022-08-25T01:38:14.700Z,18.03
2022-08-25T01:40:43.106Z,17.99
2022-08-25T01:43:15.547Z,17.94
2022-08-25T01:45:47.557Z,17.87
2022-08-25T01:48:15.816Z,17.89
2022-08-25T01:50:44.308Z,17.81
2022-08-25T01:53:28.150Z,17.84
2022-08-25T01:56:05.750Z,17.83
2022-08-25T01:58:40.746Z,17.86
2022-08-25T02:01:12.312Z,17.86
2022-08-25T02:03:42.378Z,17.85
2022-08-25T02:06:13.664Z,17.84
2022-08-25T02:08:41.304Z,17.90
2022-08-25T02:11:13.563Z,17.88
2022-08-25T02:13:42.405Z,17.88
2022-08-25T02:16:16.968Z,17.81
2022-08-25T02:18:45.657Z,17.88
2022-08-25T02:21:12.745Z,17.80
2022-08-25T02:23:39.606Z,17.73
2022-08-25T02:26:06.442Z,17.64
2022-08-25T02:28:33.258Z,17.69
2022-08-25T02:31:01.197Z,17.65
2022-08-25T02:33:29.084Z,17.61
2022-08-25T02:36:01.615Z,17.52
2022-08-25T02:38:29.830Z,17.53
2022-08-25T02:40:58.667Z,17.53
2022-08-25T02:43:28.236Z,17.46
2022-08-25T02:45:58.119Z,17.48
2022-08-25T02:48:25.049Z,17.50
2022-08-25T02:50:53.153Z,17.35
2022-08-25T02:53:21.820Z,17.44
2022-08-25T02:55:48.774Z,17.36
2022-08-25T02:58:16.246Z,17.33
2022-08-25T03:00:43.246Z,17.30
2022-08-25T03:03:10.246Z,17.25
2022-08-25T03:05:37.135Z,17.29
2022-08-25T03:08:06.539Z,17.28
2022-08-25T03:10:33.944Z,17.21
2022-08-25T03:13:00.719Z,17.17
2022-08-25T03:15:27.914Z,17.13
2022-08-25T03:17:59.909Z,17.14
2022-08-25T03:20:28.657Z,17.08
2022-08-25T03:22:55.559Z,17.08
2022-08-25T03:25:41.091Z,17.02
2022-08-25T03:28:08.519Z,16.92
2022-08-25T03:30:35.484Z,16.99
2022-08-25T03:33:02.460Z,16.98
2022-08-25T03:35:31.005Z,16.99
2022-08-25T03:37:59.808Z,17.00
2022-08-25T03:40:27.194Z,16.92
2022-08-25T03:42:56.908Z,16.94
2022-08-25T03:45:25.507Z,16.94
2022-08-25T03:47:54.267Z,16.88
2022-08-25T03:50:22.996Z,16.84
2022-08-25T03:52:57.582Z,16.84
2022-08-25T03:55:26.071Z,16.81
2022-08-25T03:57:54.806Z,16.77
2022-08-25T04:00:23.653Z,16.80
2022-08-25T04:02:50.576Z,16.77
2022-08-25T04:05:17.768Z,16.79
2022-08-25T04:07:44.579Z,16.75
2022-08-25T04:10:12.566Z,16.75
2022-08-25T04:12:39.730Z,16.74
2022-08-25T04:15:08.865Z,16.76
2022-08-25T04:17:39.844Z,16.79
2022-08-25T04:20:09.866Z,16.77
2022-08-25T04:22:37.895Z,16.75
2022-08-25T04:25:07.143Z,16.76
2022-08-25T04:27:34.094Z,16.77
2022-08-25T04:30:01.290Z,16.72
2022-08-25T04:32:28.523Z,16.73
2022-08-25T04:34:55.349Z,16.76
2022-08-25T04:37:22.519Z,16.79
2022-08-25T04:39:49.348Z,16.74
2022-08-25T04:42:16.378Z,16.73
2022-08-25T04:44:43.482Z,16.76
2022-08-25T04:47:11.211Z,16.80
2022-08-25T04:49:38.024Z,16.72
2022-08-25T04:52:04.896Z,16.73
2022-08-25T04:54:37.321Z,16.73
2022-08-25T04:57:04.583Z,16.70
2022-08-25T04:59:31.463Z,16.69
2022-08-25T05:02:02.881Z,16.67
2022-08-25T05:04:31.318Z,16.64
2022-08-25T05:06:58.733Z,16.65
2022-08-25T05:09:26.460Z,16.66
2022-08-25T05:11:55.064Z,16.69
2022-08-25T05:14:26.599Z,16.71
2022-08-25T05:16:55.329Z,16.71
2022-08-25T05:19:24.379Z,16.72
2022-08-25T05:21:52.435Z,16.69
2022-08-25T05:24:20.548Z,16.73
2022-08-25T05:26:47.483Z,16.75
2022-08-25T05:29:14.851Z,16.73
2022-08-25T05:31:47.088Z,16.73
2022-08-25T05:34:18.505Z,16.68
2022-08-25T05:36:45.319Z,16.75
2022-08-25T05:39:12.411Z,16.84
2022-08-25T05:41:39.476Z,16.81
2022-08-25T05:44:06.602Z,16.81
2022-08-25T05:46:33.882Z,16.82
2022-08-25T05:49:01.181Z,16.83
2022-08-25T05:51:28.083Z,16.83
2022-08-25T05:53:55.023Z,16.87
2022-08-25T05:56:22.011Z,16.85
2022-08-25T05:58:49.560Z,16.89
2022-08-25T06:01:46.688Z,16.80
2022-08-25T06:04:15.996Z,16.77
2022-08-25T06:06:42.810Z,16.77
2022-08-25T06:09:10.388Z,16.74
2022-08-25T06:11:40.228Z,16.78
2022-08-25T06:14:09.507Z,16.74
2022-08-25T06:16:37.077Z,16.76
2022-08-25T06:19:04.576Z,16.79
2022-08-25T06:21:31.566Z,16.76
2022-08-25T06:23:58.775Z,16.81
2022-08-25T06:26:26.558Z,16.79
2022-08-25T06:28:54.007Z,16.79
2022-08-25T06:31:22.671Z,16.79
2022-08-25T06:33:50.466Z,16.80
2022-08-25T06:36:17.569Z,16.73
2022-08-25T06:38:44.449Z,16.72
2022-08-25T06:41:12.675Z,16.77
2022-08-25T06:43:48.081Z,16.72
2022-08-25T06:46:21.626Z,16.78
2022-08-25T06:48:49.530Z,16.84
2022-08-25T06:51:19.942Z,16.83
2022-08-25T06:53:49.536Z,16.82
2022-08-25T06:56:19.179Z,16.86
2022-08-25T06:58:46.846Z,16.81
2022-08-25T07:01:27.006Z,16.77
2022-08-25T07:03:57.778Z,16.79
2022-08-25T07:06:27.580Z,16.76
2022-08-25T07:08:55.018Z,16.82
2022-08-25T07:11:21.893Z,16.78
2022-08-25T07:13:50.601Z,16.77
2022-08-25T07:16:20.669Z,16.77
2022-08-25T07:18:49.068Z,16.74
2022-08-25T07:21:17.436Z,16.69
2022-08-25T07:23:46.537Z,16.75
2022-08-25T07:26:36.767Z,16.77
2022-08-25T07:29:12.482Z,16.68
2022-08-25T07:31:40.003Z,16.74
2022-08-25T07:34:26.816Z,16.71
2022-08-25T07:36:57.087Z,16.70
2022-08-25T07:39:25.898Z,16.69
2022-08-25T07:41:53.558Z,16.72
2022-08-25T07:44:22.960Z,16.76
2022-08-25T07:46:51.319Z,16.76
2022-08-25T07:49:23.370Z,16.78
2022-08-25T07:52:04.599Z,16.81
2022-08-25T07:54:35.193Z,16.79
2022-08-25T07:57:05.038Z,16.79
2022-08-25T07:59:39.467Z,16.79
2022-08-25T08:02:18.481Z,16.66
2022-08-25T08:04:51.166Z,16.78
2022-08-25T08:07:33.607Z,16.74
2022-08-25T08:13:00.706Z,16.70
2022-08-25T08:15:29.888Z,16.72
2022-08-25T08:17:58.558Z,16.71
2022-08-25T08:20:27.107Z,16.68
2022-08-25T08:22:54.573Z,16.79
2022-08-25T08:25:27.665Z,16.78
2022-08-25T08:27:55.804Z,16.72
2022-08-25T08:30:26.229Z,16.68
2022-08-25T08:33:11.723Z,16.68
2022-08-25T08:35:41.567Z,16.73
2022-08-25T08:38:14.760Z,16.76
2022-08-25T08:42:11.612Z,16.68
2022-08-25T08:44:45.007Z,16.72
2022-08-25T08:47:28.202Z,16.69
2022-08-25T08:50:33.059Z,16.61
2022-08-25T08:53:34.090Z,16.66
2022-08-25T08:56:11.842Z,16.64
2022-08-25T08:59:19.397Z,16.64
2022-08-25T09:01:57.542Z,16.66
2022-08-25T09:04:49.307Z,16.64
2022-08-25T09:07:32.268Z,16.64
2022-08-25T09:09:59.680Z,16.71
2022-08-25T09:12:34.502Z,16.70
2022-08-25T09:15:12.750Z,16.71
2022-08-25T09:18:11.962Z,16.69
2022-08-25T09:20:52.291Z,16.68
2022-08-25T09:24:05.271Z,16.60
2022-08-25T09:27:14.107Z,16.51
2022-08-25T09:30:10.174Z,16.56
2022-08-25T09:32:52.598Z,16.56
2022-08-25T09:35:29.063Z,16.66
2022-08-25T09:38:12.083Z,16.63
2022-08-25T09:40:47.909Z,16.66
2022-08-25T09:43:45.039Z,16.64
2022-08-25T09:46:27.144Z,16.71
2022-08-25T09:48:57.596Z,16.68
2022-08-25T09:51:37.998Z,16.74
2022-08-25T09:54:18.436Z,16.77
2022-08-25T09:56:58.808Z,16.73
2022-08-25T09:59:35.680Z,16.78
2022-08-25T10:02:25.708Z,16.82
2022-08-25T10:04:53.431Z,16.82
2022-08-25T10:07:29.716Z,16.85
2022-08-25T10:10:01.306Z,16.89
2022-08-25T10:12:51.225Z,16.79
2022-08-25T10:15:32.147Z,16.87
2022-08-25T10:18:18.922Z,16.93
2022-08-25T10:21:07.946Z,16.94
2022-08-25T10:23:39.604Z,16.95
2022-08-25T10:26:24.527Z,16.96
2022-08-25T10:29:02.106Z,17.00
2022-08-25T10:31:58.100Z,16.98
2022-08-25T10:34:51.925Z,17.04
2022-08-25T10:37:40.628Z,17.02
2022-08-25T10:40:20.865Z,17.03
2022-08-25T10:42:56.790Z,17.00
2022-08-25T10:45:45.962Z,16.99
2022-08-25T10:48:28.014Z,16.92
2022-08-25T10:51:25.862Z,17.01
2022-08-25T10:54:26.042Z,16.97
2022-08-25T10:57:08.166Z,16.95
2022-08-25T11:00:09.939Z,16.95
2022-08-25T11:02:58.193Z,16.94
2022-08-25T11:05:40.493Z,16.98
2022-08-25T11:08:33.605Z,16.99
2022-08-25T11:11:06.259Z,16.98
2022-08-25T11:13:54.562Z,17.00
2022-08-25T11:16:41.383Z,17.04
2022-08-25T11:19:33.973Z,17.10
2022-08-25T11:22:23.544Z,17.20
2022-08-25T11:25:26.212Z,17.29
2022-08-25T11:28:13.255Z,17.42
2022-08-25T11:30:40.857Z,17.51
2022-08-25T11:33:12.995Z,17.60
2022-08-25T11:36:11.460Z,17.68
2022-08-25T11:39:00.456Z,17.81
2022-08-25T11:42:01.772Z,17.95
2022-08-25T11:45:10.003Z,17.92
2022-08-25T11:48:14.978Z,18.10
2022-08-25T11:51:03.147Z,18.00
2022-08-25T11:53:37.986Z,18.14
2022-08-25T11:56:35.247Z,18.18
2022-08-25T11:59:02.355Z,18.33
2022-08-25T12:01:34.961Z,18.41
2022-08-25T12:04:34.117Z,18.54
2022-08-25T12:07:13.762Z,18.59
2022-08-25T12:09:54.006Z,18.73
2022-08-25T12:12:45.551Z,18.75
2022-08-25T12:15:32.882Z,18.89
2022-08-25T12:18:45.840Z,19.01
2022-08-25T12:21:15.495Z,19.05
2022-08-25T12:23:46.397Z,19.10
2022-08-25T12:26:49.457Z,19.19
2022-08-25T12:29:44.272Z,19.28
2022-08-25T12:33:05.525Z,19.43
2022-08-25T12:35:59.217Z,19.66
2022-08-25T12:38:50.917Z,19.86
2022-08-25T12:41:31.075Z,20.01
2022-08-25T12:44:35.818Z,20.12
2022-08-25T12:47:23.695Z,20.29
2022-08-25T12:49:51.079Z,20.40
2022-08-25T12:52:28.079Z,20.49
2022-08-25T12:54:58.768Z,20.51
2022-08-25T12:57:57.795Z,20.41
2022-08-25T13:01:32.856Z,20.42
2022-08-25T13:04:15.443Z,20.45
2022-08-25T13:07:26.159Z,20.44
2022-08-25T13:10:17.670Z,20.34
2022-08-25T13:13:09.221Z,20.41
2022-08-25T13:15:46.977Z,20.51
2022-08-25T13:18:21.134Z,20.59
2022-08-25T13:20:54.054Z,20.58
2022-08-25T13:23:27.560Z,20.57
2022-08-25T13:25:58.359Z,20.55
2022-08-25T13:28:40.692Z,20.51
2022-08-25T13:31:18.638Z,20.56
2022-08-25T13:33:55.010Z,20.55
2022-08-25T13:36:52.030Z,20.64
2022-08-25T13:39:45.967Z,20.69
2022-08-25T13:42:16.571Z,20.79
2022-08-25T13:44:51.952Z,20.87
2022-08-25T13:47:45.243Z,21.01
2022-08-25T13:50:31.212Z,21.14
2022-08-25T13:53:21.218Z,21.26
2022-08-25T13:55:58.395Z,21.29
2022-08-25T13:58:38.651Z,21.27
2022-08-25T14:01:22.916Z,21.40
2022-08-25T14:04:50.549Z,21.30
2022-08-25T14:07:25.512Z,21.35
2022-08-25T14:10:07.922Z,21.33
2022-08-25T14:12:44.680Z,21.34
2022-08-25T14:15:17.932Z,21.53
2022-08-25T14:18:00.812Z,21.60
2022-08-25T14:20:31.501Z,21.66
2022-08-25T14:23:16.238Z,21.68
2022-08-25T14:25:46.428Z,21.77
2022-08-25T14:28:19.057Z,21.88
2022-08-25T14:30:56.239Z,22.04
2022-08-25T14:33:35.068Z,22.13
2022-08-25T14:36:04.847Z,22.26
2022-08-25T14:38:33.774Z,22.15
2022-08-25T14:41:00.841Z,22.06
2022-08-25T14:43:32.016Z,22.01
2022-08-25T14:46:02.753Z,21.91
2022-08-25T14:48:37.491Z,21.85
2022-08-25T14:51:05.396Z,21.86
2022-08-25T14:53:33.939Z,21.91
2022-08-25T14:56:01.083Z,22.01
2022-08-25T14:58:34.243Z,22.11
2022-08-25T15:01:03.249Z,22.20
2022-08-25T15:03:35.366Z,22.27
2022-08-25T15:06:03.683Z,22.29
2022-08-25T15:08:50.383Z,22.29
2022-08-25T15:11:18.189Z,22.23
2022-08-25T15:13:49.667Z,22.18
2022-08-25T15:16:39.884Z,22.07
2022-08-25T15:19:14.508Z,21.98
2022-08-25T15:21:45.075Z,21.87
2022-08-25T15:24:17.582Z,21.79
2022-08-25T15:26:56.483Z,21.65
2022-08-25T15:29:26.385Z,21.57
2022-08-25T15:31:53.659Z,21.51
2022-08-25T15:34:20.832Z,21.47
2022-08-25T15:36:48.215Z,21.50
2022-08-25T15:39:18.073Z,21.45
2022-08-25T15:41:49.487Z,21.36
2022-08-25T15:44:16.731Z,21.38
2022-08-25T15:46:47.164Z,21.34
2022-08-25T15:49:20.762Z,21.21
2022-08-25T15:51:55.418Z,21.13
2022-08-25T15:54:26.774Z,21.10
2022-08-25T15:56:55.678Z,21.09
2022-08-25T15:59:23.847Z,21.17
2022-08-25T16:01:55.695Z,21.22
2022-08-25T16:04:25.455Z,21.26
2022-08-25T16:06:53.095Z,21.30
2022-08-25T16:09:22.695Z,21.37
2022-08-25T16:11:56.797Z,21.38
2022-08-25T16:14:27.662Z,21.41
2022-08-25T16:16:58.496Z,21.45
2022-08-25T16:19:28.840Z,21.48
2022-08-25T16:21:56.986Z,21.55
2022-08-25T16:24:24.798Z,21.48
2022-08-25T16:26:52.755Z,21.46
2022-08-25T16:29:22.836Z,21.41
2022-08-25T16:31:54.815Z,21.39
2022-08-25T16:34:24.716Z,21.35
2022-08-25T16:36:55.393Z,21.32
2022-08-25T16:39:23.888Z,21.33
2022-08-25T16:41:52.438Z,21.38
2022-08-25T16:44:22.392Z,21.46
2022-08-25T16:46:54.563Z,21.52
2022-08-25T16:49:24.463Z,21.60
2022-08-25T16:51:57.693Z,21.60
2022-08-25T16:54:45.162Z,21.59
2022-08-25T16:57:12.573Z,21.55
2022-08-25T16:59:39.463Z,21.45
2022-08-25T17:02:06.871Z,21.47
2022-08-25T17:04:33.737Z,21.46
2022-08-25T17:07:01.740Z,21.41
2022-08-25T17:09:29.937Z,21.35
2022-08-25T17:11:57.394Z,21.35
2022-08-25T17:14:25.299Z,21.27
2022-08-25T17:16:55.252Z,21.25
2022-08-25T17:19:25.115Z,21.20
2022-08-25T17:21:54.927Z,21.18
2022-08-25T17:24:29.214Z,21.11
2022-08-25T17:26:59.054Z,21.02
2022-08-25T17:29:26.571Z,20.94
2022-08-25T17:31:53.536Z,20.88
2022-08-25T17:34:23.101Z,20.84
2022-08-25T17:36:50.635Z,20.81
2022-08-25T17:39:22.052Z,20.78
2022-08-25T17:41:50.107Z,20.76
2022-08-25T17:44:17.060Z,20.74
2022-08-25T17:46:47.519Z,20.69
2022-08-25T17:49:17.253Z,20.62
2022-08-25T17:51:44.249Z,20.61
2022-08-25T17:54:12.336Z,20.55
2022-08-25T17:56:39.477Z,20.44
2022-08-25T17:59:06.894Z,20.39
2022-08-25T18:01:40.418Z,20.38
2022-08-25T18:04:15.650Z,20.25
2022-08-25T18:06:45.461Z,20.16
2022-08-25T18:09:12.690Z,20.09
2022-08-25T18:11:39.765Z,20.02
2022-08-25T18:14:06.923Z,19.99
2022-08-25T18:16:38.734Z,19.88
2022-08-25T18:19:06.601Z,19.79
2022-08-25T18:21:37.935Z,19.71
2022-08-25T18:24:06.314Z,19.64
2022-08-25T18:26:33.917Z,19.52
2022-08-25T18:29:01.872Z,19.46
2022-08-25T18:31:29.315Z,19.41
2022-08-25T18:33:57.626Z,19.35
2022-08-25T18:36:24.832Z,19.27
2022-08-25T18:39:11.532Z,19.23
2022-08-25T18:41:42.620Z,19.13
2022-08-25T18:44:11.028Z,19.06
2022-08-25T18:46:39.754Z,18.97
2022-08-25T18:49:06.670Z,18.91
2022-08-25T18:51:35.563Z,18.84
2022-08-25T18:54:03.598Z,18.77
2022-08-25T18:56:30.583Z,18.71
2022-08-25T18:58:58.482Z,18.65
2022-08-25T19:01:25.619Z,18.57
2022-08-25T19:03:53.017Z,18.48
2022-08-25T19:06:20.880Z,18.53
2022-08-25T19:08:48.975Z,18.49
2022-08-25T19:11:17.618Z,18.46
2022-08-25T19:13:50.327Z,18.45
2022-08-25T19:16:38.528Z,18.37
2022-08-25T19:19:08.111Z,18.33
2022-08-25T19:21:36.052Z,18.27
2022-08-25T19:24:03.382Z,18.21
2022-08-25T19:26:30.742Z,18.15
2022-08-25T19:28:57.843Z,18.09
2022-08-25T19:31:25.861Z,18.04
2022-08-25T19:33:54.869Z,17.98
2022-08-25T19:36:28.017Z,17.90
2022-08-25T19:38:58.712Z,17.87
2022-08-25T19:41:27.847Z,17.81
2022-08-25T19:43:57.395Z,17.75
2022-08-25T19:46:35.743Z,17.68
2022-08-25T19:49:15.784Z,17.64
2022-08-25T19:51:47.696Z,17.65
2022-08-25T19:54:24.303Z,17.58
2022-08-25T19:56:55.183Z,17.58
2022-08-25T19:59:40.708Z,17.56
2022-08-25T20:02:15.418Z,17.54
2022-08-25T20:04:49.559Z,17.50
2022-08-25T20:07:23.725Z,17.48
2022-08-25T20:09:52.881Z,17.50
2022-08-25T20:12:21.949Z,17.43
2022-08-25T20:14:51.142Z,17.40
2022-08-25T20:17:24.799Z,17.35
2022-08-25T20:19:59.837Z,17.29
2022-08-25T20:22:30.205Z,17.27
2022-08-25T20:25:01.399Z,17.27
2022-08-25T20:27:37.620Z,17.24
2022-08-25T20:30:15.385Z,17.21
2022-08-25T20:32:45.631Z,17.24
2022-08-25T20:35:14.543Z,17.15
2022-08-25T20:37:44.980Z,17.07
2022-08-25T20:40:16.122Z,17.04
2022-08-25T20:42:44.378Z,17.00
2022-08-25T20:45:14.819Z,16.94
2022-08-25T20:47:41.921Z,16.89
2022-08-25T20:50:09.650Z,16.83
2022-08-25T20:52:39.202Z,16.76
2022-08-25T20:55:11.203Z,16.68
2022-08-25T20:57:39.306Z,16.63
2022-08-25T21:00:08.282Z,16.55
2022-08-25T21:02:36.654Z,16.48
2022-08-25T21:05:05.022Z,16.42
2022-08-25T21:07:32.133Z,16.35
2022-08-25T21:10:06.878Z,16.27
2022-08-25T21:12:38.391Z,16.21
2022-08-25T21:15:07.066Z,16.20
2022-08-25T21:17:34.950Z,16.11
2022-08-25T21:20:08.178Z,16.05
2022-08-25T21:22:37.026Z,15.97
2022-08-25T21:25:05.722Z,15.91
2022-08-25T21:27:33.892Z,15.86
2022-08-25T21:30:00.724Z,15.79
2022-08-25T21:32:27.577Z,15.74
2022-08-25T21:34:55.392Z,15.68
2022-08-25T21:37:23.648Z,15.61
2022-08-25T21:39:51.601Z,15.59
2022-08-25T21:42:21.259Z,15.53
2022-08-25T21:44:48.684Z,15.49
2022-08-25T21:47:15.975Z,15.44
2022-08-25T21:49:48.934Z,15.39
2022-08-25T21:52:16.287Z,15.34
2022-08-25T21:54:44.794Z,15.29
2022-08-25T21:57:12.134Z,15.26
2022-08-25T21:59:41.183Z,15.20
2022-08-25T22:02:11.449Z,15.14
2022-08-25T22:04:40.268Z,15.09
2022-08-25T22:07:09.257Z,15.05
2022-08-25T22:09:36.561Z,14.96
2022-08-25T22:12:05.287Z,14.91
2022-08-25T22:14:32.755Z,14.87
2022-08-25T22:17:00.024Z,14.81
2022-08-25T22:19:27.843Z,14.77
2022-08-25T22:21:56.010Z,14.71
2022-08-25T22:24:28.420Z,14.66
2022-08-25T22:26:56.214Z,14.64
2022-08-25T22:29:25.863Z,14.60
2022-08-25T22:32:00.690Z,14.54
2022-08-25T22:34:32.753Z,14.55
2022-08-25T22:37:01.796Z,14.50
2022-08-25T22:39:32.399Z,14.48
2022-08-25T22:42:02.052Z,14.48
2022-08-25T22:44:29.097Z,14.49
2022-08-25T22:46:56.334Z,14.50
2022-08-25T22:49:23.847Z,14.52
2022-08-25T22:51:53.725Z,14.54
2022-08-25T22:54:22.225Z,14.55
2022-08-25T22:56:49.043Z,14.58
2022-08-25T22:59:15.847Z,14.64
2022-08-25T23:01:45.103Z,14.66
2022-08-25T23:04:14.768Z,14.67
2022-08-25T23:06:42.388Z,14.72
2022-08-25T23:09:10.887Z,14.80
2022-08-25T23:11:39.423Z,14.82
2022-08-25T23:14:10.388Z,14.83
2022-08-25T23:16:39.584Z,14.82
2022-08-25T23:19:13.709Z,14.90
2022-08-25T23:22:01.096Z,14.92
2022-08-25T23:24:30.516Z,14.96
2022-08-25T23:27:03.919Z,14.96
2022-08-25T23:29:32.515Z,14.91
2022-08-25T23:31:59.400Z,14.91
2022-08-25T23:34:28.592Z,14.93
2022-08-25T23:36:56.943Z,14.91
2022-08-25T23:39:24.087Z,14.90
2022-08-25T23:41:51.678Z,14.90
2022-08-25T23:44:21.558Z,14.89
2022-08-25T23:46:50.071Z,14.87
2022-08-25T23:49:20.848Z,14.84
2022-08-25T23:51:50.384Z,14.77
2022-08-25T23:54:21.333Z,14.72
2022-08-25T23:56:51.613Z,14.63
2022-08-25T23:59:24.821Z,14.56
